sensor_id;sensor_type;location;lat;lon;timestamp;P1;durP1;ratioP1;P2;durP2;ratioP2
27684;SDS011;46113;50.130;8.526;2024-03-23T00:53:48;9.73;;;5.65;;
27684;SDS011;46113;50.130;8.526;2024-03-23T00:56:14;9.43;;;5.72;;
27684;SDS011;46113;50.130;8.526;2024-03-23T00:58:40;7.68;;;4.97;;
27684;SDS011;46113;50.130;8.526;2024-03-23T01:01:06;7.15;;;5.00;;
27684;SDS011;46113;50.130;8.526;2024-03-23T01:03:32;9.32;;;6.38;;
27684;SDS011;46113;50.130;8.526;2024-03-23T01:06:01;11.73;;;5.97;;
27684;SDS011;46113;50.130;8.526;2024-03-23T01:08:28;8.65;;;5.35;;
27684;SDS011;46113;50.130;8.526;2024-03-23T01:11:00;6.78;;;4.82;;
27684;SDS011;46113;50.130;8.526;2024-03-23T01:15:54;5.75;;;4.95;;
27684;SDS011;46113;50.130;8.526;2024-03-23T01:18:22;8.30;;;5.15;;
27684;SDS011;46113;50.130;8.526;2024-03-23T01:20:49;10.90;;;5.25;;
27684;SDS011;46113;50.130;8.526;2024-03-23T01:23:15;9.00;;;6.20;;
27684;SDS011;46113;50.130;8.526;2024-03-23T01:25:41;7.20;;;5.13;;
27684;SDS011;46113;50.130;8.526;2024-03-23T01:28:07;8.25;;;4.82;;
27684;SDS011;46113;50.130;8.526;2024-03-23T01:33:22;9.68;;;4.88;;
27684;SDS011;46113;50.130;8.526;2024-03-23T01:35:47;6.80;;;4.97;;
27684;SDS011;46113;50.130;8.526;2024-03-23T01:38:13;12.63;;;5.32;;
27684;SDS011;46113;50.130;8.526;2024-03-23T01:40:39;6.32;;;4.13;;
27684;SDS011;46113;50.130;8.526;2024-03-23T01:43:05;5.35;;;4.28;;
27684;SDS011;46113;50.130;8.526;2024-03-23T01:45:35;4.45;;;3.40;;
27684;SDS011;46113;50.130;8.526;2024-03-23T01:48:02;5.15;;;4.10;;
27684;SDS011;46113;50.130;8.526;2024-03-23T01:50:28;6.75;;;3.75;;
27684;SDS011;46113;50.130;8.526;2024-03-23T01:52:58;6.03;;;3.60;;
27684;SDS011;46113;50.130;8.526;2024-03-23T01:55:25;4.65;;;3.72;;
27684;SDS011;46113;50.130;8.526;2024-03-23T01:57:52;6.15;;;3.60;;
27684;SDS011;46113;50.130;8.526;2024-03-23T02:00:18;4.35;;;3.17;;
27684;SDS011;46113;50.130;8.526;2024-03-23T02:02:44;5.03;;;3.85;;
27684;SDS011;46113;50.130;8.526;2024-03-23T02:05:14;5.30;;;3.92;;
27684;SDS011;46113;50.130;8.526;2024-03-23T02:07:40;4.97;;;4.05;;
27684;SDS011;46113;50.130;8.526;2024-03-23T02:10:07;10.15;;;4.43;;
27684;SDS011;46113;50.130;8.526;2024-03-23T02:12:33;4.43;;;3.67;;
27684;SDS011;46113;50.130;8.526;2024-03-23T02:15:00;6.97;;;4.30;;
27684;SDS011;46113;50.130;8.526;2024-03-23T02:17:25;3.75;;;3.08;;
27684;SDS011;46113;50.130;8.526;2024-03-23T02:19:52;6.85;;;3.92;;
27684;SDS011;46113;50.130;8.526;2024-03-23T02:22:17;6.10;;;4.05;;
27684;SDS011;46113;50.130;8.526;2024-03-23T02:24:43;6.47;;;3.53;;
27684;SDS011;46113;50.130;8.526;2024-03-23T02:27:09;5.07;;;3.50;;
27684;SDS011;46113;50.130;8.526;2024-03-23T02:29:35;6.72;;;3.30;;
27684;SDS011;46113;50.130;8.526;2024-03-23T02:32:01;3.63;;;3.33;;
27684;SDS011;46113;50.130;8.526;2024-03-23T02:34:27;7.93;;;4.15;;
27684;SDS011;46113;50.130;8.526;2024-03-23T02:36:53;4.28;;;3.70;;
27684;SDS011;46113;50.130;8.526;2024-03-23T02:39:19;8.38;;;3.85;;
27684;SDS011;46113;50.130;8.526;2024-03-23T02:41:45;8.25;;;4.82;;
27684;SDS011;46113;50.130;8.526;2024-03-23T02:44:11;7.78;;;4.22;;
27684;SDS011;46113;50.130;8.526;2024-03-23T02:46:39;6.63;;;4.28;;
27684;SDS011;46113;50.130;8.526;2024-03-23T02:49:05;6.28;;;4.40;;
27684;SDS011;46113;50.130;8.526;2024-03-23T02:51:32;9.45;;;4.93;;
27684;SDS011;46113;50.130;8.526;2024-03-23T02:53:57;7.63;;;5.07;;
27684;SDS011;46113;50.130;8.526;2024-03-23T02:56:23;9.43;;;4.28;;
27684;SDS011;46113;50.130;8.526;2024-03-23T02:58:49;6.25;;;4.80;;
27684;SDS011;46113;50.130;8.526;2024-03-23T03:01:15;11.20;;;6.18;;
27684;SDS011;46113;50.130;8.526;2024-03-23T03:03:41;15.77;;;8.05;;
27684;SDS011;46113;50.130;8.526;2024-03-23T03:06:07;16.98;;;8.20;;
27684;SDS011;46113;50.130;8.526;2024-03-23T03:08:32;7.65;;;5.22;;
27684;SDS011;46113;50.130;8.526;2024-03-23T03:10:58;6.97;;;5.28;;
27684;SDS011;46113;50.130;8.526;2024-03-23T03:13:24;6.63;;;4.78;;
27684;SDS011;46113;50.130;8.526;2024-03-23T03:15:50;10.95;;;5.38;;
27684;SDS011;46113;50.130;8.526;2024-03-23T03:18:16;11.32;;;6.05;;
27684;SDS011;46113;50.130;8.526;2024-03-23T03:20:41;7.15;;;4.68;;
27684;SDS011;46113;50.130;8.526;2024-03-23T03:23:07;8.13;;;4.40;;
27684;SDS011;46113;50.130;8.526;2024-03-23T03:25:33;9.95;;;5.07;;
27684;SDS011;46113;50.130;8.526;2024-03-23T03:27:59;8.60;;;5.25;;
27684;SDS011;46113;50.130;8.526;2024-03-23T03:30:25;6.53;;;4.60;;
27684;SDS011;46113;50.130;8.526;2024-03-23T03:32:54;10.40;;;6.53;;
27684;SDS011;46113;50.130;8.526;2024-03-23T03:35:20;13.98;;;6.90;;
27684;SDS011;46113;50.130;8.526;2024-03-23T03:37:46;14.32;;;7.63;;
27684;SDS011;46113;50.130;8.526;2024-03-23T03:40:12;17.40;;;7.55;;
27684;SDS011;46113;50.130;8.526;2024-03-23T03:42:40;14.82;;;7.82;;
27684;SDS011;46113;50.130;8.526;2024-03-23T03:45:07;10.15;;;6.00;;
27684;SDS011;46113;50.130;8.526;2024-03-23T03:47:33;6.40;;;4.72;;
27684;SDS011;46113;50.130;8.526;2024-03-23T03:49:59;11.60;;;5.47;;
27684;SDS011;46113;50.130;8.526;2024-03-23T03:52:24;8.05;;;5.70;;
27684;SDS011;46113;50.130;8.526;2024-03-23T03:54:50;9.55;;;5.97;;
27684;SDS011;46113;50.130;8.526;2024-03-23T03:57:16;7.80;;;5.57;;
27684;SDS011;46113;50.130;8.526;2024-03-23T03:59:42;7.13;;;5.85;;
27684;SDS011;46113;50.130;8.526;2024-03-23T04:02:08;9.98;;;5.97;;
27684;SDS011;46113;50.130;8.526;2024-03-23T04:04:34;7.40;;;5.53;;
27684;SDS011;46113;50.130;8.526;2024-03-23T04:07:00;11.43;;;6.00;;
27684;SDS011;46113;50.130;8.526;2024-03-23T04:09:27;9.10;;;5.65;;
27684;SDS011;46113;50.130;8.526;2024-03-23T04:11:53;8.57;;;4.93;;
27684;SDS011;46113;50.130;8.526;2024-03-23T04:14:19;10.93;;;5.93;;
27684;SDS011;46113;50.130;8.526;2024-03-23T04:16:45;6.80;;;5.57;;
27684;SDS011;46113;50.130;8.526;2024-03-23T04:19:11;8.50;;;5.18;;
27684;SDS011;46113;50.130;8.526;2024-03-23T04:21:37;8.90;;;5.85;;
27684;SDS011;46113;50.130;8.526;2024-03-23T04:24:03;9.70;;;5.75;;
27684;SDS011;46113;50.130;8.526;2024-03-23T04:26:30;10.57;;;6.22;;
27684;SDS011;46113;50.130;8.526;2024-03-23T04:29:05;10.13;;;5.72;;
27684;SDS011;46113;50.130;8.526;2024-03-23T04:31:31;7.60;;;6.45;;
27684;SDS011;46113;50.130;8.526;2024-03-23T04:34:00;11.35;;;6.50;;
27684;SDS011;46113;50.130;8.526;2024-03-23T04:36:26;8.13;;;6.45;;
27684;SDS011;46113;50.130;8.526;2024-03-23T04:38:52;10.75;;;7.30;;
27684;SDS011;46113;50.130;8.526;2024-03-23T04:41:18;11.65;;;7.57;;
27684;SDS011;46113;50.130;8.526;2024-03-23T04:43:44;9.93;;;7.43;;
27684;SDS011;46113;50.130;8.526;2024-03-23T04:46:10;13.90;;;8.10;;
27684;SDS011;46113;50.130;8.526;2024-03-23T04:48:35;15.55;;;8.10;;
27684;SDS011;46113;50.130;8.526;2024-03-23T04:51:02;13.10;;;7.30;;
27684;SDS011;46113;50.130;8.526;2024-03-23T04:53:27;10.20;;;7.50;;
27684;SDS011;46113;50.130;8.526;2024-03-23T04:55:55;11.50;;;8.05;;
27684;SDS011;46113;50.130;8.526;2024-03-23T04:58:22;19.17;;;11.98;;
27684;SDS011;46113;50.130;8.526;2024-03-23T05:00:53;14.32;;;9.43;;
27684;SDS011;46113;50.130;8.526;2024-03-23T05:03:19;22.30;;;12.45;;
27684;SDS011;46113;50.130;8.526;2024-03-23T05:05:47;18.02;;;12.00;;
27684;SDS011;46113;50.130;8.526;2024-03-23T05:08:15;29.85;;;13.43;;
27684;SDS011;46113;50.130;8.526;2024-03-23T05:10:42;24.80;;;13.82;;
27684;SDS011;46113;50.130;8.526;2024-03-23T05:13:08;23.55;;;13.95;;
27684;SDS011;46113;50.130;8.526;2024-03-23T05:15:34;23.92;;;14.13;;
27684;SDS011;46113;50.130;8.526;2024-03-23T05:18:00;29.80;;;17.67;;
27684;SDS011;46113;50.130;8.526;2024-03-23T05:20:26;33.72;;;16.23;;
27684;SDS011;46113;50.130;8.526;2024-03-23T05:22:54;29.08;;;15.82;;
27684;SDS011;46113;50.130;8.526;2024-03-23T05:25:20;26.35;;;15.35;;
27684;SDS011;46113;50.130;8.526;2024-03-23T05:27:46;30.02;;;16.02;;
27684;SDS011;46113;50.130;8.526;2024-03-23T05:30:12;25.00;;;14.52;;
27684;SDS011;46113;50.130;8.526;2024-03-23T05:32:38;30.15;;;16.63;;
27684;SDS011;46113;50.130;8.526;2024-03-23T05:35:06;33.70;;;15.30;;
27684;SDS011;46113;50.130;8.526;2024-03-23T05:37:33;29.88;;;14.20;;
27684;SDS011;46113;50.130;8.526;2024-03-23T05:39:59;21.75;;;11.13;;
27684;SDS011;46113;50.130;8.526;2024-03-23T05:42:26;21.25;;;11.55;;
27684;SDS011;46113;50.130;8.526;2024-03-23T05:44:52;22.92;;;11.57;;
27684;SDS011;46113;50.130;8.526;2024-03-23T05:47:18;17.40;;;11.15;;
27684;SDS011;46113;50.130;8.526;2024-03-23T05:49:45;15.70;;;9.20;;
27684;SDS011;46113;50.130;8.526;2024-03-23T05:52:11;10.95;;;6.95;;
27684;SDS011;46113;50.130;8.526;2024-03-23T05:54:38;11.85;;;5.82;;
27684;SDS011;46113;50.130;8.526;2024-03-23T05:57:04;10.27;;;5.55;;
27684;SDS011;46113;50.130;8.526;2024-03-23T05:59:32;8.15;;;4.15;;
27684;SDS011;46113;50.130;8.526;2024-03-23T06:01:58;9.73;;;4.35;;
27684;SDS011;46113;50.130;8.526;2024-03-23T06:04:24;4.75;;;2.85;;
27684;SDS011;46113;50.130;8.526;2024-03-23T06:06:51;4.15;;;3.13;;
27684;SDS011;46113;50.130;8.526;2024-03-23T06:09:18;3.40;;;2.50;;
27684;SDS011;46113;50.130;8.526;2024-03-23T06:11:45;5.88;;;2.45;;
27684;SDS011;46113;50.130;8.526;2024-03-23T06:14:11;3.25;;;1.90;;
27684;SDS011;46113;50.130;8.526;2024-03-23T06:16:37;2.80;;;1.90;;
27684;SDS011;46113;50.130;8.526;2024-03-23T06:19:03;2.78;;;1.48;;
27684;SDS011;46113;50.130;8.526;2024-03-23T06:21:30;2.38;;;1.00;;
27684;SDS011;46113;50.130;8.526;2024-03-23T06:23:55;1.98;;;1.10;;
27684;SDS011;46113;50.130;8.526;2024-03-23T06:26:21;1.65;;;1.15;;
27684;SDS011;46113;50.130;8.526;2024-03-23T06:28:47;1.20;;;1.10;;
27684;SDS011;46113;50.130;8.526;2024-03-23T06:31:13;1.10;;;0.90;;
27684;SDS011;46113;50.130;8.526;2024-03-23T06:33:39;2.38;;;1.05;;
27684;SDS011;46113;50.130;8.526;2024-03-23T06:36:10;0.68;;;0.50;;
27684;SDS011;46113;50.130;8.526;2024-03-23T06:38:36;0.95;;;0.55;;
27684;SDS011;46113;50.130;8.526;2024-03-23T06:41:06;0.77;;;0.43;;
27684;SDS011;46113;50.130;8.526;2024-03-23T06:43:31;0.30;;;0.30;;
27684;SDS011;46113;50.130;8.526;2024-03-23T06:45:57;0.35;;;0.35;;
27684;SDS011;46113;50.130;8.526;2024-03-23T06:48:23;0.25;;;0.20;;
27684;SDS011;46113;50.130;8.526;2024-03-23T06:50:49;0.63;;;0.20;;
27684;SDS011;46113;50.130;8.526;2024-03-23T06:53:20;0.10;;;0.10;;
27684;SDS011;46113;50.130;8.526;2024-03-23T06:55:49;0.15;;;0.15;;
27684;SDS011;46113;50.130;8.526;2024-03-23T06:58:17;0.55;;;0.17;;
27684;SDS011;46113;50.130;8.526;2024-03-23T07:00:44;0.20;;;0.10;;
27684;SDS011;46113;50.130;8.526;2024-03-23T07:03:10;0.80;;;0.13;;
27684;SDS011;46113;50.130;8.526;2024-03-23T07:05:36;1.48;;;0.10;;
27684;SDS011;46113;50.130;8.526;2024-03-23T07:08:02;0.10;;;0.10;;
27684;SDS011;46113;50.130;8.526;2024-03-23T07:10:28;0.85;;;0.20;;
27684;SDS011;46113;50.130;8.526;2024-03-23T07:12:54;1.45;;;0.10;;
27684;SDS011;46113;50.130;8.526;2024-03-23T07:15:19;0.08;;;0.00;;
27684;SDS011;46113;50.130;8.526;2024-03-23T07:17:48;1.25;;;0.30;;
27684;SDS011;46113;50.130;8.526;2024-03-23T07:20:17;0.20;;;0.10;;
27684;SDS011;46113;50.130;8.526;2024-03-23T07:22:45;0.20;;;0.10;;
27684;SDS011;46113;50.130;8.526;2024-03-23T07:25:12;0.63;;;0.55;;
27684;SDS011;46113;50.130;8.526;2024-03-23T07:27:38;0.10;;;0.03;;
27684;SDS011;46113;50.130;8.526;2024-03-23T07:30:05;0.00;;;0.00;;
27684;SDS011;46113;50.130;8.526;2024-03-23T07:32:31;0.40;;;0.40;;
27684;SDS011;46113;50.130;8.526;2024-03-23T07:34:57;0.43;;;0.40;;
27684;SDS011;46113;50.130;8.526;2024-03-23T07:37:32;0.40;;;0.20;;
27684;SDS011;46113;50.130;8.526;2024-03-23T07:39:58;1.90;;;0.43;;
27684;SDS011;46113;50.130;8.526;2024-03-23T07:42:32;0.60;;;0.10;;
27684;SDS011;46113;50.130;8.526;2024-03-23T07:45:04;0.77;;;0.38;;
27684;SDS011;46113;50.130;8.526;2024-03-23T07:47:33;0.17;;;0.17;;
27684;SDS011;46113;50.130;8.526;2024-03-23T07:49:59;0.52;;;0.22;;
27684;SDS011;46113;50.130;8.526;2024-03-23T07:52:28;0.40;;;0.40;;
27684;SDS011;46113;50.130;8.526;2024-03-23T07:55:02;1.20;;;0.28;;
27684;SDS011;46113;50.130;8.526;2024-03-23T07:57:28;0.30;;;0.15;;
27684;SDS011;46113;50.130;8.526;2024-03-23T07:59:54;1.65;;;0.20;;
27684;SDS011;46113;50.130;8.526;2024-03-23T08:02:20;0.55;;;0.30;;
27684;SDS011;46113;50.130;8.526;2024-03-23T08:04:46;0.15;;;0.10;;
27684;SDS011;46113;50.130;8.526;2024-03-23T08:07:12;1.92;;;0.55;;
27684;SDS011;46113;50.130;8.526;2024-03-23T08:09:38;0.73;;;0.47;;
27684;SDS011;46113;50.130;8.526;2024-03-23T08:12:03;1.60;;;0.70;;
27684;SDS011;46113;50.130;8.526;2024-03-23T08:14:30;0.20;;;0.20;;
27684;SDS011;46113;50.130;8.526;2024-03-23T08:16:56;4.82;;;0.30;;
27684;SDS011;46113;50.130;8.526;2024-03-23T08:19:22;0.43;;;0.30;;
27684;SDS011;46113;50.130;8.526;2024-03-23T08:21:48;2.10;;;0.43;;
27684;SDS011;46113;50.130;8.526;2024-03-23T08:24:15;0.50;;;0.25;;
27684;SDS011;46113;50.130;8.526;2024-03-23T08:26:41;0.98;;;0.20;;
27684;SDS011;46113;50.130;8.526;2024-03-23T08:29:07;1.70;;;0.30;;
27684;SDS011;46113;50.130;8.526;2024-03-23T08:31:33;1.60;;;0.28;;
27684;SDS011;46113;50.130;8.526;2024-03-23T08:33:58;1.35;;;0.30;;
27684;SDS011;46113;50.130;8.526;2024-03-23T08:36:24;0.95;;;0.30;;
27684;SDS011;46113;50.130;8.526;2024-03-23T08:38:50;6.00;;;0.82;;
27684;SDS011;46113;50.130;8.526;2024-03-23T08:41:19;0.50;;;0.43;;
27684;SDS011;46113;50.130;8.526;2024-03-23T08:43:45;0.73;;;0.40;;
27684;SDS011;46113;50.130;8.526;2024-03-23T08:46:11;2.17;;;0.57;;
27684;SDS011;46113;50.130;8.526;2024-03-23T08:48:42;0.60;;;0.30;;
27684;SDS011;46113;50.130;8.526;2024-03-23T08:51:09;2.15;;;0.43;;
27684;SDS011;46113;50.130;8.526;2024-03-23T08:53:36;3.33;;;0.60;;
27684;SDS011;46113;50.130;8.526;2024-03-23T08:56:03;3.70;;;1.02;;
27684;SDS011;46113;50.130;8.526;2024-03-23T08:58:31;0.55;;;0.50;;
27684;SDS011;46113;50.130;8.526;2024-03-23T09:01:08;0.70;;;0.40;;
27684;SDS011;46113;50.130;8.526;2024-03-23T09:03:38;2.40;;;0.82;;
27684;SDS011;46113;50.130;8.526;2024-03-23T09:06:08;4.25;;;1.10;;
27684;SDS011;46113;50.130;8.526;2024-03-23T09:08:36;0.77;;;0.60;;
27684;SDS011;46113;50.130;8.526;2024-03-23T09:11:06;1.95;;;0.70;;
27684;SDS011;46113;50.130;8.526;2024-03-23T09:13:33;1.45;;;0.73;;
27684;SDS011;46113;50.130;8.526;2024-03-23T09:16:00;4.97;;;0.90;;
27684;SDS011;46113;50.130;8.526;2024-03-23T09:18:27;4.88;;;0.85;;
27684;SDS011;46113;50.130;8.526;2024-03-23T09:20:53;0.60;;;0.50;;
27684;SDS011;46113;50.130;8.526;2024-03-23T09:23:21;1.55;;;0.77;;
27684;SDS011;46113;50.130;8.526;2024-03-23T09:25:47;4.20;;;0.95;;
27684;SDS011;46113;50.130;8.526;2024-03-23T09:28:14;3.30;;;1.00;;
27684;SDS011;46113;50.130;8.526;2024-03-23T09:30:40;2.83;;;0.90;;
27684;SDS011;46113;50.130;8.526;2024-03-23T09:33:09;4.05;;;1.77;;
27684;SDS011;46113;50.130;8.526;2024-03-23T09:35:36;5.68;;;1.70;;
27684;SDS011;46113;50.130;8.526;2024-03-23T09:38:06;3.50;;;0.90;;
27684;SDS011;46113;50.130;8.526;2024-03-23T09:40:39;5.60;;;1.40;;
27684;SDS011;46113;50.130;8.526;2024-03-23T09:43:07;5.38;;;1.17;;
27684;SDS011;46113;50.130;8.526;2024-03-23T09:45:34;2.28;;;0.95;;
27684;SDS011;46113;50.130;8.526;2024-03-23T09:48:03;4.13;;;0.95;;
27684;SDS011;46113;50.130;8.526;2024-03-23T09:50:30;5.13;;;1.42;;
27684;SDS011;46113;50.130;8.526;2024-03-23T09:52:56;3.28;;;1.70;;
27684;SDS011;46113;50.130;8.526;2024-03-23T09:55:21;6.15;;;1.50;;
27684;SDS011;46113;50.130;8.526;2024-03-23T09:57:47;7.25;;;2.30;;
27684;SDS011;46113;50.130;8.526;2024-03-23T10:00:13;8.23;;;2.88;;
27684;SDS011;46113;50.130;8.526;2024-03-23T10:02:39;5.07;;;2.40;;
27684;SDS011;46113;50.130;8.526;2024-03-23T10:05:13;8.52;;;2.30;;
27684;SDS011;46113;50.130;8.526;2024-03-23T10:07:45;6.03;;;2.47;;
27684;SDS011;46113;50.130;8.526;2024-03-23T10:10:11;8.77;;;2.83;;
27684;SDS011;46113;50.130;8.526;2024-03-23T10:12:39;3.05;;;1.80;;
27684;SDS011;46113;50.130;8.526;2024-03-23T10:15:21;7.07;;;1.60;;
27684;SDS011;46113;50.130;8.526;2024-03-23T10:17:48;6.57;;;2.60;;
27684;SDS011;46113;50.130;8.526;2024-03-23T10:20:22;8.00;;;1.83;;
27684;SDS011;46113;50.130;8.526;2024-03-23T10:22:51;7.75;;;2.15;;
27684;SDS011;46113;50.130;8.526;2024-03-23T10:25:18;6.28;;;1.70;;
27684;SDS011;46113;50.130;8.526;2024-03-23T10:28:00;8.07;;;2.08;;
27684;SDS011;46113;50.130;8.526;2024-03-23T10:30:27;4.07;;;1.65;;
27684;SDS011;46113;50.130;8.526;2024-03-23T10:33:11;3.60;;;1.50;;
27684;SDS011;46113;50.130;8.526;2024-03-23T10:35:38;5.95;;;1.67;;
27684;SDS011;46113;50.130;8.526;2024-03-23T10:38:05;4.70;;;1.33;;
27684;SDS011;46113;50.130;8.526;2024-03-23T10:40:34;4.05;;;1.35;;
27684;SDS011;46113;50.130;8.526;2024-03-23T10:43:01;6.15;;;1.65;;
27684;SDS011;46113;50.130;8.526;2024-03-23T10:45:29;4.72;;;1.20;;
27684;SDS011;46113;50.130;8.526;2024-03-23T10:47:55;6.28;;;1.25;;
27684;SDS011;46113;50.130;8.526;2024-03-23T10:50:22;3.63;;;1.23;;
27684;SDS011;46113;50.130;8.526;2024-03-23T10:52:48;6.32;;;1.75;;
27684;SDS011;46113;50.130;8.526;2024-03-23T10:55:18;11.32;;;1.60;;
27684;SDS011;46113;50.130;8.526;2024-03-23T11:00:24;6.72;;;1.55;;
27684;SDS011;46113;50.130;8.526;2024-03-23T11:02:50;6.95;;;1.38;;
27684;SDS011;46113;50.130;8.526;2024-03-23T11:07:52;4.40;;;0.77;;
27684;SDS011;46113;50.130;8.526;2024-03-23T11:10:28;5.20;;;1.48;;
27684;SDS011;46113;50.130;8.526;2024-03-23T11:12:56;5.32;;;1.02;;
27684;SDS011;46113;50.130;8.526;2024-03-23T11:15:22;2.97;;;1.00;;
27684;SDS011;46113;50.130;8.526;2024-03-23T11:18:07;4.25;;;0.90;;
27684;SDS011;46113;50.130;8.526;2024-03-23T11:20:35;5.57;;;1.30;;
27684;SDS011;46113;50.130;8.526;2024-03-23T11:23:01;7.63;;;1.40;;
27684;SDS011;46113;50.130;8.526;2024-03-23T11:25:28;8.48;;;1.70;;
27684;SDS011;46113;50.130;8.526;2024-03-23T11:28:21;5.20;;;0.60;;
27684;SDS011;46113;50.130;8.526;2024-03-23T11:30:48;5.80;;;1.40;;
27684;SDS011;46113;50.130;8.526;2024-03-23T11:41:09;3.70;;;0.80;;
27684;SDS011;46113;50.130;8.526;2024-03-23T11:44:51;4.65;;;0.85;;
27684;SDS011;46113;50.130;8.526;2024-03-23T11:48:49;5.78;;;1.05;;
27684;SDS011;46113;50.130;8.526;2024-03-23T11:52:14;1.55;;;0.63;;
27684;SDS011;46113;50.130;8.526;2024-03-23T11:54:46;3.72;;;0.70;;
27684;SDS011;46113;50.130;8.526;2024-03-23T11:57:27;3.55;;;0.70;;
27684;SDS011;46113;50.130;8.526;2024-03-23T12:00:21;2.65;;;0.55;;
27684;SDS011;46113;50.130;8.526;2024-03-23T12:02:51;3.70;;;0.47;;
27684;SDS011;46113;50.130;8.526;2024-03-23T12:05:17;7.10;;;0.93;;
27684;SDS011;46113;50.130;8.526;2024-03-23T12:07:43;3.55;;;0.60;;
27684;SDS011;46113;50.130;8.526;2024-03-23T12:10:10;2.08;;;0.90;;
27684;SDS011;46113;50.130;8.526;2024-03-23T12:12:36;3.15;;;0.77;;
27684;SDS011;46113;50.130;8.526;2024-03-23T12:15:05;2.78;;;0.75;;
27684;SDS011;46113;50.130;8.526;2024-03-23T12:17:34;3.05;;;0.68;;
27684;SDS011;46113;50.130;8.526;2024-03-23T12:20:01;3.03;;;0.65;;
27684;SDS011;46113;50.130;8.526;2024-03-23T12:22:27;6.90;;;0.77;;
27684;SDS011;46113;50.130;8.526;2024-03-23T12:24:55;2.42;;;0.80;;
27684;SDS011;46113;50.130;8.526;2024-03-23T12:27:21;4.25;;;1.20;;
27684;SDS011;46113;50.130;8.526;2024-03-23T12:29:47;4.25;;;0.90;;
27684;SDS011;46113;50.130;8.526;2024-03-23T12:32:13;2.47;;;0.77;;
27684;SDS011;46113;50.130;8.526;2024-03-23T12:34:40;2.42;;;0.85;;
27684;SDS011;46113;50.130;8.526;2024-03-23T12:37:06;3.55;;;1.08;;
27684;SDS011;46113;50.130;8.526;2024-03-23T12:39:33;4.05;;;0.70;;
27684;SDS011;46113;50.130;8.526;2024-03-23T12:42:00;1.55;;;0.45;;
27684;SDS011;46113;50.130;8.526;2024-03-23T12:44:28;1.48;;;0.52;;
27684;SDS011;46113;50.130;8.526;2024-03-23T12:46:54;2.38;;;0.52;;
27684;SDS011;46113;50.130;8.526;2024-03-23T12:49:20;2.42;;;0.50;;
27684;SDS011;46113;50.130;8.526;2024-03-23T12:51:49;0.95;;;0.40;;
27684;SDS011;46113;50.130;8.526;2024-03-23T12:54:21;2.90;;;0.98;;
27684;SDS011;46113;50.130;8.526;2024-03-23T12:56:47;4.63;;;1.02;;
27684;SDS011;46113;50.130;8.526;2024-03-23T12:59:13;3.13;;;0.75;;
27684;SDS011;46113;50.130;8.526;2024-03-23T13:01:39;2.10;;;0.65;;
27684;SDS011;46113;50.130;8.526;2024-03-23T13:04:05;7.90;;;1.13;;
27684;SDS011;46113;50.130;8.526;2024-03-23T13:06:31;2.63;;;0.88;;
27684;SDS011;46113;50.130;8.526;2024-03-23T13:09:03;2.72;;;0.98;;
27684;SDS011;46113;50.130;8.526;2024-03-23T13:11:30;3.10;;;0.70;;
27684;SDS011;46113;50.130;8.526;2024-03-23T13:13:56;4.47;;;0.65;;
27684;SDS011;46113;50.130;8.526;2024-03-23T13:16:22;5.55;;;1.02;;
27684;SDS011;46113;50.130;8.526;2024-03-23T13:18:48;5.80;;;1.15;;
27684;SDS011;46113;50.130;8.526;2024-03-23T13:21:14;5.03;;;0.95;;
27684;SDS011;46113;50.130;8.526;2024-03-23T13:23:40;2.45;;;0.43;;
27684;SDS011;46113;50.130;8.526;2024-03-23T13:26:07;7.40;;;0.60;;
27684;SDS011;46113;50.130;8.526;2024-03-23T13:28:33;3.60;;;0.60;;
27684;SDS011;46113;50.130;8.526;2024-03-23T13:31:00;2.65;;;1.60;;
27684;SDS011;46113;50.130;8.526;2024-03-23T13:33:29;3.13;;;0.73;;
27684;SDS011;46113;50.130;8.526;2024-03-23T13:35:57;9.52;;;4.40;;
27684;SDS011;46113;50.130;8.526;2024-03-23T13:38:23;22.02;;;7.53;;
27684;SDS011;46113;50.130;8.526;2024-03-23T13:43:15;56.13;;;22.30;;
27684;SDS011;46113;50.130;8.526;2024-03-23T13:45:41;6.38;;;3.42;;
27684;SDS011;46113;50.130;8.526;2024-03-23T13:48:09;10.38;;;3.40;;
27684;SDS011;46113;50.130;8.526;2024-03-23T13:50:35;0.75;;;0.50;;
27684;SDS011;46113;50.130;8.526;2024-03-23T13:53:01;2.40;;;0.50;;
27684;SDS011;46113;50.130;8.526;2024-03-23T13:55:27;1.27;;;0.20;;
27684;SDS011;46113;50.130;8.526;2024-03-23T13:57:53;1.10;;;0.40;;
27684;SDS011;46113;50.130;8.526;2024-03-23T14:00:19;8.93;;;0.82;;
27684;SDS011;46113;50.130;8.526;2024-03-23T14:02:45;0.95;;;0.30;;
27684;SDS011;46113;50.130;8.526;2024-03-23T14:05:11;2.15;;;1.95;;
27684;SDS011;46113;50.130;8.526;2024-03-23T14:07:37;1.55;;;0.40;;
27684;SDS011;46113;50.130;8.526;2024-03-23T14:10:04;2.05;;;0.45;;
27684;SDS011;46113;50.130;8.526;2024-03-23T14:12:32;0.57;;;0.47;;
27684;SDS011;46113;50.130;8.526;2024-03-23T14:14:58;0.50;;;0.50;;
27684;SDS011;46113;50.130;8.526;2024-03-23T14:17:24;137.15;;;53.92;;
27684;SDS011;46113;50.130;8.526;2024-03-23T14:19:51;529.83;;;139.50;;
27684;SDS011;46113;50.130;8.526;2024-03-23T14:22:17;111.97;;;15.25;;
27684;SDS011;46113;50.130;8.526;2024-03-23T14:24:48;17.50;;;4.80;;
27684;SDS011;46113;50.130;8.526;2024-03-23T14:27:14;36.90;;;18.67;;
27684;SDS011;46113;50.130;8.526;2024-03-23T14:29:39;4.78;;;2.63;;
27684;SDS011;46113;50.130;8.526;2024-03-23T14:32:05;82.57;;;66.28;;
27684;SDS011;46113;50.130;8.526;2024-03-23T14:34:31;299.50;;;121.75;;
27684;SDS011;46113;50.130;8.526;2024-03-23T14:36:57;1272.18;;;596.50;;
27684;SDS011;46113;50.130;8.526;2024-03-23T14:39:24;966.95;;;263.48;;
27684;SDS011;46113;50.130;8.526;2024-03-23T14:41:50;48.67;;;16.17;;
27684;SDS011;46113;50.130;8.526;2024-03-23T14:44:16;1.90;;;1.70;;
27684;SDS011;46113;50.130;8.526;2024-03-23T14:46:42;1.40;;;0.98;;
27684;SDS011;46113;50.130;8.526;2024-03-23T14:49:08;3.05;;;1.30;;
27684;SDS011;46113;50.130;8.526;2024-03-23T14:51:35;1.33;;;0.38;;
27684;SDS011;46113;50.130;8.526;2024-03-23T14:54:01;1.25;;;0.95;;
27684;SDS011;46113;50.130;8.526;2024-03-23T14:56:27;0.57;;;0.32;;
27684;SDS011;46113;50.130;8.526;2024-03-23T14:58:53;0.40;;;0.30;;
27684;SDS011;46113;50.130;8.526;2024-03-23T15:01:21;0.55;;;0.38;;
27684;SDS011;46113;50.130;8.526;2024-03-23T15:03:47;0.32;;;0.32;;
27684;SDS011;46113;50.130;8.526;2024-03-23T15:06:22;1.65;;;0.65;;
27684;SDS011;46113;50.130;8.526;2024-03-23T15:08:48;2.17;;;0.65;;
27684;SDS011;46113;50.130;8.526;2024-03-23T15:11:14;0.35;;;0.28;;
27684;SDS011;46113;50.130;8.526;2024-03-23T15:13:43;0.98;;;0.50;;
27684;SDS011;46113;50.130;8.526;2024-03-23T15:16:09;7.20;;;4.25;;
27684;SDS011;46113;50.130;8.526;2024-03-23T15:18:35;0.43;;;0.32;;
27684;SDS011;46113;50.130;8.526;2024-03-23T15:21:02;0.57;;;0.30;;
27684;SDS011;46113;50.130;8.526;2024-03-23T15:23:31;0.55;;;0.22;;
27684;SDS011;46113;50.130;8.526;2024-03-23T15:25:58;0.63;;;0.30;;
27684;SDS011;46113;50.130;8.526;2024-03-23T15:28:25;0.68;;;0.20;;
27684;SDS011;46113;50.130;8.526;2024-03-23T15:31:09;0.52;;;0.30;;
27684;SDS011;46113;50.130;8.526;2024-03-23T15:33:35;0.52;;;0.32;;
27684;SDS011;46113;50.130;8.526;2024-03-23T15:36:02;3.20;;;1.00;;
27684;SDS011;46113;50.130;8.526;2024-03-23T15:38:28;0.40;;;0.40;;
27684;SDS011;46113;50.130;8.526;2024-03-23T15:40:56;0.35;;;0.32;;
27684;SDS011;46113;50.130;8.526;2024-03-23T15:43:22;0.20;;;0.20;;
27684;SDS011;46113;50.130;8.526;2024-03-23T15:45:58;0.30;;;0.30;;
27684;SDS011;46113;50.130;8.526;2024-03-23T15:48:29;2.00;;;0.57;;
27684;SDS011;46113;50.130;8.526;2024-03-23T15:50:56;1.38;;;0.60;;
27684;SDS011;46113;50.130;8.526;2024-03-23T15:53:24;0.45;;;0.30;;
27684;SDS011;46113;50.130;8.526;2024-03-23T15:58:23;0.30;;;0.30;;
27684;SDS011;46113;50.130;8.526;2024-03-23T16:00:56;3.08;;;0.93;;
27684;SDS011;46113;50.130;8.526;2024-03-23T16:03:25;0.60;;;0.52;;